Time;durP1;ratioP1;P1;durP2;ratioP2;P2;SDS_P1;SDS_P2;PMS_P1;PMS_P2;Temp;Humidity;BMP_temperature;BMP_pressure;BME280_temperature;BME280_humidity;BME280_pressure;Samples;Min_cycle;Max_cycle;Signal;HPM_P1;HPM_P2
2022/06/01 00:00:05;;;;;;;1.13;0.98;;;22.10;59.50;;;;;;5089921;28;20755;-37
2022/06/01 00:02:31;;;;;;;0.95;0.88;;;22.10;59.60;;;;;;5087991;28;20095;-38
2022/06/01 00:04:57;;;;;;;1.03;0.87;;;22.00;59.40;;;;;;5082913;28;20131;-37
2022/06/01 00:07:25;;;;;;;0.88;0.85;;;22.00;59.40;;;;;;5080714;28;20037;-37
2022/06/01 00:09:53;;;;;;;1.92;0.80;;;22.00;59.20;;;;;;5074765;28;20508;-34
2022/06/01 00:12:19;;;;;;;2.15;0.85;;;22.00;58.90;;;;;;5079858;28;20059;-59
2022/06/01 00:14:45;;;;;;;1.00;0.90;;;22.00;59.00;;;;;;5079203;28;20561;-34
2022/06/01 00:17:11;;;;;;;1.13;0.90;;;21.90;59.20;;;;;;5077645;28;20052;-35
2022/06/01 00:19:38;;;;;;;1.40;0.88;;;21.90;59.40;;;;;;5080568;28;20108;-34
2022/06/01 00:22:14;;;;;;;1.65;0.82;;;21.90;59.50;;;;;;5077921;28;20085;-34
2022/06/01 00:24:44;;;;;;;0.85;0.85;;;21.90;59.50;;;;;;5057789;28;20092;-34
2022/06/01 00:27:10;;;;;;;1.55;0.90;;;21.90;59.30;;;;;;5064370;28;20020;-34
2022/06/01 00:29:37;;;;;;;0.88;0.88;;;21.80;59.20;;;;;;5064737;28;20062;-34
2022/06/01 00:32:04;;;;;;;0.70;0.70;;;21.80;59.20;;;;;;5075107;28;20054;-33
2022/06/01 00:34:30;;;;;;;0.70;0.70;;;21.80;59.10;;;;;;5075765;28;20282;-34
2022/06/01 00:36:56;;;;;;;1.10;1.00;;;21.80;58.90;;;;;;5075200;28;20047;-34
2022/06/01 00:39:23;;;;;;;0.80;0.80;;;21.80;58.80;;;;;;5063995;28;20033;-34
2022/06/01 00:41:49;;;;;;;2.00;0.90;;;21.80;59.10;;;;;;5074110;28;20033;-35
2022/06/01 00:44:15;;;;;;;0.77;0.77;;;21.70;59.20;;;;;;5082839;28;20103;-34
2022/06/01 00:46:41;;;;;;;0.80;0.80;;;21.70;58.90;;;;;;5063448;28;20093;-34
2022/06/01 00:49:17;;;;;;;0.65;0.65;;;21.70;59.50;;;;;;5080037;28;20531;-34
2022/06/01 00:51:43;;;;;;;1.00;0.88;;;21.70;59.40;;;;;;5058988;28;20066;-34
2022/06/01 00:54:09;;;;;;;1.00;0.80;;;21.60;59.30;;;;;;5074689;28;20152;-34
2022/06/01 00:56:39;;;;;;;1.00;0.85;;;21.60;59.30;;;;;;5084527;28;20028;-35
2022/06/01 00:59:06;;;;;;;1.40;0.88;;;21.60;59.20;;;;;;5063722;28;20048;-35
2022/06/01 01:01:32;;;;;;;1.00;0.90;;;21.60;59.10;;;;;;5059011;28;20036;-35
2022/06/01 01:03:59;;;;;;;1.52;1.27;;;21.60;59.00;;;;;;5062057;28;20054;-35
2022/06/01 01:06:26;;;;;;;0.70;0.70;;;21.60;58.90;;;;;;5082283;28;20032;-35
2022/06/01 01:08:52;;;;;;;;;;;21.60;59.00;;;;;;5078572;28;20034;-34
2022/06/01 01:11:23;;;;;;;0.73;0.73;;;21.50;58.90;;;;;;5071904;28;19970;-35
2022/06/01 01:13:49;;;;;;;0.88;0.60;;;21.50;58.90;;;;;;5058683;28;20528;-35
2022/06/01 01:16:16;;;;;;;0.77;0.77;;;21.50;58.90;;;;;;5061706;28;20020;-35
2022/06/01 01:18:43;;;;;;;0.80;0.80;;;21.40;58.90;;;;;;5063237;28;20028;-35
2022/06/01 01:21:46;;;;;;;0.73;0.73;;;21.40;58.60;;;;;;5070861;28;20060;-35
2022/06/01 01:24:26;;;;;;;0.80;0.80;;;21.40;58.60;;;;;;5081148;28;20042;-34
2022/06/01 01:26:53;;;;;;;1.50;1.17;;;21.40;58.50;;;;;;5076483;28;20029;-34
2022/06/01 01:29:36;;;;;;;1.33;1.20;;;21.40;58.60;;;;;;5044040;28;20109;-34
2022/06/01 01:32:05;;;;;;;3.42;1.10;;;21.30;59.00;;;;;;5075570;28;20024;-35
2022/06/01 01:34:33;;;;;;;3.38;1.10;;;21.30;59.30;;;;;;5077916;28;20036;-33
2022/06/01 01:37:02;;;;;;;3.03;1.27;;;21.30;59.40;;;;;;5076511;28;20021;-35
2022/06/01 01:39:29;;;;;;;1.50;1.20;;;21.30;59.60;;;;;;5058592;28;20047;-35
2022/06/01 01:41:55;;;;;;;1.55;1.40;;;21.30;59.70;;;;;;5079410;28;20040;-33
2022/06/01 01:44:30;;;;;;;2.80;1.10;;;21.30;59.80;;;;;;5059356;28;20113;-33
2022/06/01 01:46:56;;;;;;;1.80;1.20;;;21.30;59.80;;;;;;5063235;28;20059;-33
2022/06/01 01:49:26;;;;;;;1.88;1.42;;;21.30;59.80;;;;;;5079222;28;20033;-33
2022/06/01 01:51:54;;;;;;;1.40;1.25;;;21.30;59.80;;;;;;5068045;28;20047;-34
2022/06/01 01:54:38;;;;;;;1.58;1.48;;;21.30;59.90;;;;;;5072517;28;20043;-34
2022/06/01 01:57:25;;;;;;;1.75;1.40;;;21.30;59.90;;;;;;5080504;28;20029;-38
2022/06/01 02:00:10;;;;;;;1.58;1.30;;;21.20;59.90;;;;;;5080989;28;20036;-35
2022/06/01 02:02:54;;;;;;;1.35;1.25;;;21.20;59.90;;;;;;5083035;28;20044;-35
2022/06/01 02:08:36;;;;;;;1.58;1.20;;;21.20;60.00;;;;;;5072401;28;20040;-35
2022/06/01 02:14:22;;;;;;;1.40;1.30;;;21.20;60.50;;;;;;5070197;28;20096;-34
2022/06/01 02:17:10;;;;;;;1.30;1.20;;;21.20;60.70;;;;;;5068116;28;20312;-34
2022/06/01 02:19:42;;;;;;;1.38;1.20;;;21.20;60.90;;;;;;5065472;28;20480;-34
2022/06/01 02:22:10;;;;;;;2.67;1.38;;;21.20;61.30;;;;;;5053012;28;20052;-34
2022/06/01 02:24:38;;;;;;;1.20;1.10;;;21.20;61.40;;;;;;5085840;28;20063;-35
2022/06/01 02:27:05;;;;;;;1.60;1.50;;;21.20;61.70;;;;;;5080063;28;20075;-34
2022/06/01 02:29:37;;;;;;;1.83;1.40;;;21.20;61.90;;;;;;5073783;28;20126;-34
2022/06/01 02:32:03;;;;;;;1.50;1.30;;;21.20;61.90;;;;;;5053147;28;20091;-35
2022/06/01 02:34:30;;;;;;;1.73;1.55;;;21.20;62.10;;;;;;5054031;28;20033;-34
2022/06/01 02:36:56;;;;;;;1.42;1.33;;;21.20;62.20;;;;;;5066474;28;20041;-35
2022/06/01 02:39:22;;;;;;;2.47;1.42;;;21.20;62.40;;;;;;5037775;28;20071;-34
2022/06/01 02:42:50;;;;;;;4.35;1.30;;;21.20;62.60;;;;;;5061503;28;20029;-34
2022/06/01 02:44:44;;;;;;;1.50;1.40;;;21.30;62.60;;;;;;5065360;28;20108;-35
2022/06/01 02:47:11;;;;;;;1.55;1.45;;;21.30;63.20;;;;;;5052186;28;20035;-34
2022/06/01 02:49:37;;;;;;;1.50;1.40;;;21.30;63.40;;;;;;5080159;28;20085;-34
2022/06/01 02:52:05;;;;;;;2.00;1.60;;;21.30;63.60;;;;;;5083090;28;20058;-35
2022/06/01 02:54:31;;;;;;;1.73;1.45;;;21.30;63.70;;;;;;5076175;28;20040;-35
2022/06/01 02:56:57;;;;;;;1.80;1.50;;;21.30;63.80;;;;;;5083876;28;20038;-34
2022/06/01 02:59:23;;;;;;;2.35;1.40;;;21.40;64.10;;;;;;5066363;28;20041;-34
2022/06/01 03:01:49;;;;;;;3.10;1.60;;;21.40;64.20;;;;;;5074303;28;20059;-34
2022/06/01 03:04:15;;;;;;;1.75;1.40;;;21.40;64.20;;;;;;5077728;28;20032;-34
2022/06/01 03:06:43;;;;;;;1.38;1.27;;;21.40;64.20;;;;;;5061156;28;20554;-34
2022/06/01 03:09:12;;;;;;;2.13;1.60;;;21.40;64.40;;;;;;5070254;28;20024;-35
2022/06/01 03:11:39;;;;;;;1.92;1.73;;;21.50;64.60;;;;;;5063655;28;20497;-35
2022/06/01 03:14:05;;;;;;;;;;;21.50;64.90;;;;;;5082122;28;20033;-35
2022/06/01 03:16:31;;;;;;;1.80;1.60;;;21.50;64.80;;;;;;5082773;28;19918;-35
2022/06/01 03:18:57;;;;;;;3.40;1.48;;;21.50;64.90;;;;;;5079197;28;20059;-35
2022/06/01 03:21:23;;;;;;;1.88;1.48;;;21.50;65.00;;;;;;5080980;28;20043;-34
2022/06/01 03:23:49;;;;;;;1.70;1.60;;;21.60;65.00;;;;;;5076927;28;20048;-35
2022/06/01 03:26:15;;;;;;;1.60;1.50;;;21.60;65.00;;;;;;5056606;28;20028;-34
2022/06/01 03:28:42;;;;;;;1.50;1.40;;;21.60;65.00;;;;;;5080017;28;20113;-33
2022/06/01 03:31:08;;;;;;;1.77;1.63;;;21.60;65.00;;;;;;5073823;28;20035;-32
2022/06/01 03:33:37;;;;;;;1.48;1.38;;;21.60;65.00;;;;;;5082395;28;20098;-32
2022/06/01 03:36:04;;;;;;;1.50;1.40;;;21.70;65.10;;;;;;5061193;28;20021;-33
2022/06/01 03:38:30;;;;;;;;;;;21.70;65.30;;;;;;5072934;28;20036;-33
2022/06/01 03:40:57;;;;;;;1.80;1.60;;;21.70;65.30;;;;;;5080847;28;19938;-33
2022/06/01 03:43:23;;;;;;;1.52;1.42;;;21.70;65.40;;;;;;5068515;28;20040;-33
2022/06/01 03:45:55;;;;;;;1.95;1.73;;;21.70;65.40;;;;;;5060320;28;20063;-33
2022/06/01 03:48:25;;;;;;;1.90;1.63;;;21.80;65.50;;;;;;5080400;28;20777;-34
2022/06/01 03:50:51;;;;;;;1.70;1.60;;;21.80;65.50;;;;;;5077834;28;20481;-33
2022/06/01 03:53:19;;;;;;;1.85;1.70;;;21.80;65.60;;;;;;5077201;28;20040;-33
2022/06/01 03:55:45;;;;;;;1.80;1.70;;;21.80;65.50;;;;;;5081687;28;20043;-33
2022/06/01 03:58:19;;;;;;;1.70;1.60;;;21.80;65.40;;;;;;5074319;28;20028;-34
2022/06/01 04:00:46;;;;;;;2.30;2.10;;;21.90;65.60;;;;;;5071253;28;20100;-34
2022/06/01 04:03:12;;;;;;;2.15;1.90;;;21.90;65.60;;;;;;5068428;28;20513;-34
2022/06/01 04:05:38;;;;;;;2.35;1.90;;;21.90;65.50;;;;;;5072734;28;20060;-34
2022/06/01 04:08:05;;;;;;;1.70;1.60;;;21.90;65.50;;;;;;5072315;28;20097;-34
2022/06/01 04:10:36;;;;;;;2.25;1.77;;;22.00;65.50;;;;;;5078505;28;20028;-33
2022/06/01 04:13:02;;;;;;;2.17;2.00;;;22.00;65.40;;;;;;5049512;28;20017;-33
2022/06/01 04:15:28;;;;;;;1.60;1.50;;;22.00;65.50;;;;;;5081794;28;20029;-34
2022/06/01 04:17:54;;;;;;;1.80;1.70;;;22.00;65.50;;;;;;5079317;28;20103;-33
2022/06/01 04:20:20;;;;;;;2.20;1.73;;;22.00;65.70;;;;;;5084190;28;20156;-35
2022/06/01 04:22:46;;;;;;;1.85;1.75;;;22.10;65.70;;;;;;5074834;28;20744;-35
2022/06/01 04:25:15;;;;;;;1.60;1.50;;;22.10;65.80;;;;;;5055985;28;20043;-33
2022/06/01 04:27:42;;;;;;;2.47;1.92;;;22.10;65.70;;;;;;5078168;28;20032;-33
2022/06/01 04:30:10;;;;;;;2.08;1.85;;;22.10;65.80;;;;;;5083563;28;20028;-34
2022/06/01 04:32:36;;;;;;;1.88;1.73;;;22.10;65.80;;;;;;5071869;28;20029;-34
2022/06/01 04:35:03;;;;;;;2.10;1.90;;;22.20;65.90;;;;;;5079875;28;20017;-33
2022/06/01 04:37:29;;;;;;;2.08;1.90;;;22.20;66.10;;;;;;5067414;28;20116;-33
2022/06/01 04:39:56;;;;;;;2.08;1.88;;;22.20;66.20;;;;;;5065088;28;20053;-33
2022/06/01 04:42:22;;;;;;;2.22;2.03;;;22.20;66.40;;;;;;5083299;28;20040;-33
2022/06/01 04:44:48;;;;;;;2.40;1.97;;;22.20;66.40;;;;;;5076602;28;20021;-34
2022/06/01 04:47:14;;;;;;;2.00;1.80;;;22.30;66.60;;;;;;5079833;28;20017;-34
2022/06/01 04:49:40;;;;;;;2.40;2.20;;;22.30;66.80;;;;;;5081716;28;20052;-33
2022/06/01 04:52:07;;;;;;;2.30;2.10;;;22.30;66.70;;;;;;5083733;28;20067;-33
2022/06/01 04:54:33;;;;;;;2.10;1.90;;;22.30;66.70;;;;;;5085585;28;20033;-34
2022/06/01 04:56:59;;;;;;;2.25;1.92;;;22.30;66.80;;;;;;5087566;28;20017;-34
2022/06/01 04:59:25;;;;;;;2.20;2.00;;;22.40;66.90;;;;;;5074513;28;20025;-33
2022/06/01 05:01:51;;;;;;;2.30;1.90;;;22.30;66.80;;;;;;5069819;28;20047;-33
2022/06/01 05:04:18;;;;;;;2.10;1.90;;;22.40;66.80;;;;;;5085317;28;20028;-33
2022/06/01 05:06:44;;;;;;;2.10;1.90;;;22.40;66.80;;;;;;5090283;28;20038;-33
2022/06/01 05:09:10;;;;;;;2.50;2.30;;;22.40;66.90;;;;;;5075103;28;20035;-34
2022/06/01 05:11:36;;;;;;;3.15;2.33;;;22.40;66.90;;;;;;5082778;28;20021;-33
2022/06/01 05:14:02;;;;;;;3.67;2.33;;;22.40;66.90;;;;;;5079194;28;20758;-33
2022/06/01 05:16:28;;;;;;;2.28;2.08;;;22.40;66.90;;;;;;5080909;28;20036;-34
2022/06/01 05:18:54;;;;;;;3.15;2.30;;;22.40;66.80;;;;;;5082775;28;20101;-34
2022/06/01 05:21:21;;;;;;;2.50;2.30;;;22.50;66.80;;;;;;5085815;28;20546;-34
2022/06/01 05:23:47;;;;;;;2.50;2.30;;;22.50;66.70;;;;;;5081595;28;20051;-34
2022/06/01 05:26:13;;;;;;;2.30;2.10;;;22.50;66.70;;;;;;5085880;28;20032;-34
2022/06/01 05:28:39;;;;;;;2.40;2.20;;;22.50;66.70;;;;;;5078814;28;20038;-34
2022/06/01 05:31:09;;;;;;;2.55;2.35;;;22.50;66.60;;;;;;5070687;28;20017;-34
2022/06/01 05:33:36;;;;;;;2.30;2.10;;;22.50;66.50;;;;;;5081903;28;20033;-34
2022/06/01 05:36:02;;;;;;;2.30;2.10;;;22.50;66.40;;;;;;5077284;28;20579;-34
2022/06/01 05:38:28;;;;;;;2.40;2.20;;;22.50;66.70;;;;;;5078515;28;20048;-34
2022/06/01 05:40:54;;;;;;;2.53;2.33;;;22.60;66.50;;;;;;5075898;28;20266;-34
2022/06/01 05:43:21;;;;;;;2.35;2.15;;;22.60;66.50;;;;;;5076833;28;20182;-34
2022/06/01 05:45:47;;;;;;;2.60;2.40;;;22.60;66.50;;;;;;5072046;28;20033;-33
2022/06/01 05:48:16;;;;;;;2.80;2.40;;;22.60;66.50;;;;;;5059278;28;20352;-34
2022/06/01 05:50:42;;;;;;;2.65;2.42;;;22.60;66.50;;;;;;5077700;28;20034;-34
2022/06/01 05:53:08;;;;;;;2.28;2.08;;;22.60;66.40;;;;;;5066235;28;20473;-33
2022/06/01 05:55:38;;;;;;;2.85;2.13;;;22.60;66.50;;;;;;5079193;28;20029;-33
2022/06/01 05:58:17;;;;;;;2.72;2.33;;;22.60;66.50;;;;;;5082395;28;20032;-34
2022/06/01 06:00:44;;;;;;;3.25;2.33;;;22.60;66.50;;;;;;5073837;28;20028;-33
2022/06/01 06:03:10;;;;;;;2.97;2.77;;;22.70;66.50;;;;;;5084354;28;20040;-33
2022/06/01 06:08:21;;;;;;;2.65;2.45;;;22.70;66.30;;;;;;5081438;28;20066;-34
2022/06/01 06:10:47;;;;;;;2.60;2.40;;;22.70;66.10;;;;;;5087034;28;20024;-34
2022/06/01 06:13:14;;;;;;;3.88;2.65;;;22.70;66.30;;;;;;5082860;28;20028;-35
2022/06/01 06:15:40;;;;;;;2.83;2.58;;;22.70;66.30;;;;;;5080546;28;20029;-34
2022/06/01 06:18:06;;;;;;;2.53;2.33;;;22.70;66.20;;;;;;5071240;28;20058;-34
2022/06/01 06:20:33;;;;;;;2.95;2.65;;;22.70;66.20;;;;;;5088682;28;20052;-34
2022/06/01 06:23:00;;;;;;;2.47;2.20;;;22.70;66.20;;;;;;5067972;28;20071;-34
2022/06/01 06:25:26;;;;;;;3.30;2.72;;;22.70;66.10;;;;;;5086542;28;20039;-34
2022/06/01 06:27:52;;;;;;;2.63;2.42;;;22.70;66.10;;;;;;5087346;28;20032;-34
2022/06/01 06:30:19;;;;;;;2.70;2.40;;;22.70;66.00;;;;;;5079804;28;20032;-34
2022/06/01 06:32:46;;;;;;;2.60;2.40;;;22.80;66.10;;;;;;5077325;28;20033;-34
2022/06/01 06:35:12;;;;;;;2.90;2.60;;;22.80;66.00;;;;;;5062739;28;20517;-34
2022/06/01 06:37:38;;;;;;;2.13;1.92;;;22.80;66.00;;;;;;5075494;28;20115;-34
2022/06/01 06:40:05;;;;;;;3.00;2.70;;;22.80;66.00;;;;;;5081343;28;20591;-34
2022/06/01 06:42:31;;;;;;;6.45;2.50;;;22.80;65.90;;;;;;5071060;28;20049;-34
2022/06/01 06:44:58;;;;;;;2.50;2.30;;;22.80;65.90;;;;;;5076865;28;20043;-34
2022/06/01 06:47:24;;;;;;;2.85;2.50;;;22.80;65.80;;;;;;5079974;28;20032;-34
2022/06/01 06:49:50;;;;;;;2.90;2.70;;;22.80;65.80;;;;;;5067518;28;20100;-34
2022/06/01 06:52:16;;;;;;;3.75;2.75;;;22.80;65.70;;;;;;5069985;28;20020;-34
2022/06/01 06:54:42;;;;;;;2.70;2.50;;;22.80;65.70;;;;;;5095921;28;20032;-34
2022/06/01 06:57:08;;;;;;;2.60;2.40;;;22.80;65.50;;;;;;5068776;28;20025;-34
2022/06/01 06:59:36;;;;;;;2.73;2.53;;;22.80;65.60;;;;;;5058396;28;20063;-34
2022/06/01 07:02:01;;;;;;;;;;;22.90;65.60;;;;;;5076719;28;20059;-34
2022/06/01 07:04:27;;;;;;;2.53;2.33;;;22.90;65.40;;;;;;5079485;28;19912;-34
2022/06/01 07:06:54;;;;;;;3.20;2.90;;;22.90;65.40;;;;;;5082746;28;20032;-34
2022/06/01 07:09:20;;;;;;;3.22;2.60;;;22.90;65.40;;;;;;5072290;28;20024;-34
2022/06/01 07:11:46;;;;;;;3.35;2.30;;;22.90;65.40;;;;;;5076913;28;20029;-34
2022/06/01 07:14:12;;;;;;;2.58;2.38;;;22.90;65.40;;;;;;5071678;28;20056;-34
2022/06/01 07:16:38;;;;;;;2.70;2.50;;;22.90;65.40;;;;;;5077104;28;20052;-34
2022/06/01 07:19:05;;;;;;;3.00;2.65;;;22.90;65.30;;;;;;5080139;28;20044;-34
2022/06/01 07:21:31;;;;;;;2.65;2.45;;;22.90;65.20;;;;;;5049951;28;20029;-34
2022/06/01 07:23:57;;;;;;;3.03;2.72;;;22.90;65.10;;;;;;5087569;28;20036;-34
2022/06/01 07:26:29;;;;;;;3.25;2.95;;;22.90;65.00;;;;;;5076611;28;20073;-34
2022/06/01 07:28:55;;;;;;;2.78;2.58;;;22.90;65.00;;;;;;5071371;28;20028;-34
2022/06/01 07:31:21;;;;;;;4.95;2.80;;;23.00;65.00;;;;;;5086824;28;20024;-34
2022/06/01 07:33:48;;;;;;;3.17;2.92;;;22.90;64.90;;;;;;5081772;28;20088;-34
2022/06/01 07:36:15;;;;;;;3.70;2.72;;;22.90;64.80;;;;;;5074812;28;20028;-34
2022/06/01 07:44:36;;;;;;;3.10;2.78;;;22.90;64.80;;;;;;5054857;28;20105;-34
2022/06/01 07:47:03;;;;;;;2.63;2.42;;;22.90;64.70;;;;;;5073507;28;20037;-33
2022/06/01 07:49:29;;;;;;;3.17;1.87;;;22.90;63.60;;;;;;5079300;28;20033;-33
2022/06/01 07:51:55;;;;;;;2.90;2.38;;;22.90;61.80;;;;;;5065748;28;20300;-34
2022/06/01 07:54:21;;;;;;;1.60;1.50;;;22.90;61.00;;;;;;5069314;28;20036;-34
2022/06/01 07:56:47;;;;;;;1.63;1.52;;;22.90;59.60;;;;;;5084907;28;20082;-33
2022/06/01 07:59:14;;;;;;;1.88;1.77;;;22.90;59.00;;;;;;5082304;28;20638;-33
2022/06/01 08:01:40;;;;;;;2.00;1.80;;;22.80;58.50;;;;;;5076280;28;20036;-33
2022/06/01 08:04:06;;;;;;;1.50;1.40;;;22.80;58.20;;;;;;5077369;28;20033;-34
2022/06/01 08:06:33;;;;;;;2.40;1.50;;;22.80;58.10;;;;;;5094994;28;20032;-33
2022/06/01 08:08:59;;;;;;;2.40;1.85;;;22.70;57.70;;;;;;5082510;28;20025;-37
2022/06/01 08:14:11;;;;;;;2.30;1.70;;;22.70;57.50;;;;;;5079623;28;20040;-34
2022/06/01 08:16:38;;;;;;;3.08;1.77;;;22.60;57.30;;;;;;5079635;28;20405;-35
2022/06/01 08:19:04;;;;;;;;;;;22.60;57.10;;;;;;5084981;28;20485;-41
2022/06/01 08:21:31;;;;;;;2.05;1.42;;;22.50;56.60;;;;;;5083921;28;19968;-34
2022/06/01 08:23:57;;;;;;;2.25;1.88;;;22.50;57.00;;;;;;5090704;28;20035;-34
2022/06/01 08:26:24;;;;;;;2.13;1.55;;;22.40;56.70;;;;;;5084761;28;20603;-34
2022/06/01 08:28:51;;;;;;;1.48;1.38;;;22.40;56.60;;;;;;5070856;28;20051;-34
2022/06/01 08:31:17;;;;;;;2.83;1.70;;;22.30;56.50;;;;;;5080579;28;20032;-37
2022/06/01 08:33:43;;;;;;;2.95;1.90;;;22.30;56.50;;;;;;5080145;28;20084;-34
2022/06/01 08:36:09;;;;;;;1.45;1.35;;;22.30;56.40;;;;;;5074449;28;20032;-34
2022/06/01 08:38:35;;;;;;;1.83;1.50;;;22.20;56.20;;;;;;5076745;28;20055;-34
2022/06/01 08:41:11;;;;;;;2.00;1.60;;;22.20;56.10;;;;;;5074930;28;20058;-34
2022/06/01 08:43:46;;;;;;;1.48;1.35;;;22.10;55.90;;;;;;5065405;28;20068;-35
2022/06/01 08:46:12;;;;;;;1.40;1.30;;;22.10;56.50;;;;;;5065614;28;20040;-35
2022/06/01 08:49:03;;;;;;;1.90;1.80;;;22.00;56.00;;;;;;5061358;28;20112;-35
2022/06/01 08:51:30;;;;;;;1.75;1.60;;;22.00;55.90;;;;;;5051779;28;20049;-35
2022/06/01 08:53:59;;;;;;;1.52;1.42;;;21.90;55.80;;;;;;5066307;28;20044;-35
2022/06/01 08:56:49;;;;;;;2.13;1.50;;;21.90;55.80;;;;;;5070413;28;20032;-35
2022/06/01 08:59:26;;;;;;;1.73;1.42;;;21.80;55.60;;;;;;5072066;28;20024;-35
2022/06/01 09:02:17;;;;;;;2.17;1.35;;;21.80;55.70;;;;;;5065128;28;20055;-35
2022/06/01 09:04:51;;;;;;;1.70;1.50;;;21.70;56.00;;;;;;5054789;28;20067;-35
2022/06/01 09:07:34;;;;;;;1.90;1.77;;;21.70;56.00;;;;;;5062371;28;20032;-35
2022/06/01 09:10:08;;;;;;;1.67;1.58;;;21.60;56.60;;;;;;5035899;28;20040;-34
2022/06/01 09:12:34;;;;;;;1.50;1.40;;;21.60;56.60;;;;;;5065857;28;20044;-34
2022/06/01 09:15:12;;;;;;;1.90;1.70;;;21.50;56.90;;;;;;5067888;28;20020;-34
2022/06/01 09:17:40;;;;;;;1.92;1.65;;;21.50;57.00;;;;;;5066931;28;20028;-34
2022/06/01 09:22:53;;;;;;;1.85;1.70;;;21.40;57.60;;;;;;5083724;28;20039;-35
2022/06/01 09:25:22;;;;;;;2.00;1.67;;;21.40;56.90;;;;;;5070383;28;20040;-35
2022/06/01 09:27:52;;;;;;;2.10;1.73;;;21.30;57.10;;;;;;5062507;28;20048;-35
2022/06/01 09:30:20;;;;;;;2.50;1.95;;;21.30;57.20;;;;;;5077804;28;20025;-36
2022/06/01 09:33:07;;;;;;;2.38;2.03;;;21.20;57.20;;;;;;5063810;28;20037;-36
2022/06/01 09:36:15;;;;;;;2.00;1.80;;;21.20;57.40;;;;;;5065893;28;20081;-35
2022/06/01 09:38:48;;;;;;;2.35;2.15;;;21.20;57.60;;;;;;5051819;28;20033;-35
2022/06/01 09:41:36;;;;;;;2.20;2.00;;;21.10;57.70;;;;;;5063245;28;20041;-35
2022/06/01 09:44:05;;;;;;;3.85;2.40;;;21.10;57.80;;;;;;5063665;28;20041;-35
2022/06/01 09:46:40;;;;;;;2.78;2.08;;;21.10;58.00;;;;;;5079974;28;20075;-35
2022/06/01 09:49:18;;;;;;;3.30;2.15;;;21.10;58.30;;;;;;5073649;28;20029;-35
2022/06/01 09:51:44;;;;;;;3.45;1.95;;;21.00;58.30;;;;;;5064324;28;20032;-35
2022/06/01 09:54:13;;;;;;;2.40;2.20;;;21.00;58.40;;;;;;5063316;28;20025;-35
2022/06/01 09:56:45;;;;;;;2.53;2.33;;;21.00;58.60;;;;;;5071609;28;20035;-35
2022/06/01 10:07:48;;;;;;;2.88;2.53;;;21.00;59.10;;;;;;5073230;28;20036;-35
2022/06/01 10:10:25;;;;;;;2.50;2.30;;;21.00;59.30;;;;;;5067230;28;20024;-35
2022/06/01 10:12:54;;;;;;;2.80;2.20;;;21.00;59.40;;;;;;5064551;28;20281;-35
2022/06/01 10:15:36;;;;;;;2.97;2.38;;;20.90;59.40;;;;;;5079239;28;20051;-35
2022/06/01 10:18:13;;;;;;;2.70;2.50;;;20.90;59.50;;;;;;5067289;28;20024;-35
2022/06/01 10:21:05;;;;;;;2.25;2.05;;;20.90;59.50;;;;;;5048627;28;20770;-35
2022/06/01 10:23:35;;;;;;;2.60;2.40;;;20.90;59.60;;;;;;5080432;28;20060;-34
2022/06/01 10:26:09;;;;;;;2.55;2.20;;;20.90;59.70;;;;;;5064472;28;20030;-35
2022/06/01 10:28:40;;;;;;;2.50;2.20;;;20.90;59.80;;;;;;5047588;28;20028;-34
2022/06/01 10:31:08;;;;;;;2.60;2.40;;;21.00;60.10;;;;;;5081569;28;20555;-35
2022/06/01 10:33:40;;;;;;;3.40;2.60;;;20.90;60.00;;;;;;5058145;28;20075;-35
2022/06/01 10:36:16;;;;;;;3.03;2.22;;;20.90;60.10;;;;;;5072812;28;20028;-35
2022/06/01 10:38:47;;;;;;;2.97;2.22;;;20.90;60.30;;;;;;5061875;28;21030;-35
2022/06/01 10:41:36;;;;;;;3.03;2.50;;;20.90;60.20;;;;;;5058744;28;20033;-36
2022/06/01 10:44:07;;;;;;;;;;;21.00;60.40;;;;;;5076711;28;20075;-36
2022/06/01 10:46:33;;;;;;;2.33;2.13;;;21.00;60.40;;;;;;5074924;28;19934;-38
2022/06/01 10:49:18;;;;;;;4.47;2.60;;;20.90;60.80;;;;;;5071622;28;20020;-36
2022/06/01 10:51:44;;;;;;;4.32;2.50;;;20.90;61.00;;;;;;5064956;28;20025;-36
2022/06/01 10:54:19;;;;;;;13.48;2.67;;;20.90;61.10;;;;;;5054273;28;20149;-35
2022/06/01 10:56:46;;;;;;;3.55;1.67;;;21.00;61.50;;;;;;5063608;28;20144;-36
2022/06/01 10:59:14;;;;;;;3.75;1.48;;;21.00;60.20;;;;;;5077211;28;20021;-36
2022/06/01 11:01:55;;;;;;;3.30;1.38;;;21.00;59.80;;;;;;5046206;28;20043;-35
2022/06/01 11:04:49;;;;;;;1.90;1.40;;;21.00;59.90;;;;;;5081655;28;20043;-36
2022/06/01 11:07:37;;;;;;;3.67;1.42;;;21.00;59.80;;;;;;5062019;28;20025;-35
2022/06/01 11:10:42;;;;;;;77.93;42.03;;;21.00;59.70;;;;;;5078747;28;20025;-36
2022/06/01 11:13:16;;;;;;;27.05;12.60;;;21.00;60.00;;;;;;5053495;28;20048;-35
2022/06/01 11:16:23;;;;;;;31.20;14.95;;;21.00;60.30;;;;;;5062514;28;20073;-36
2022/06/01 11:18:53;;;;;;;26.83;14.60;;;21.00;60.40;;;;;;5063521;28;20067;-36
2022/06/01 11:21:25;;;;;;;26.38;13.88;;;21.00;60.50;;;;;;5069728;28;20108;-36
2022/06/01 11:24:14;;;;;;;30.10;15.88;;;21.00;60.50;;;;;;5068114;28;20029;-36
2022/06/01 11:27:02;;;;;;;27.25;15.10;;;21.00;60.30;;;;;;5076754;28;20106;-36
2022/06/01 11:29:28;;;;;;;30.15;15.45;;;21.00;60.20;;;;;;5065938;28;20025;-36
2022/06/01 11:31:54;;;;;;;25.90;15.15;;;21.00;60.20;;;;;;5068907;28;20803;-36
2022/06/01 11:34:28;;;;;;;27.95;15.30;;;21.10;60.30;;;;;;5047966;28;20116;-36
2022/06/01 11:37:01;;;;;;;29.10;14.38;;;21.10;60.20;;;;;;5050919;28;20028;-36
2022/06/01 11:39:36;;;;;;;27.33;15.55;;;21.00;60.20;;;;;;5068899;28;20035;-37
2022/06/01 11:42:28;;;;;;;24.45;14.20;;;21.10;60.20;;;;;;5063415;28;20100;-36
2022/06/01 11:45:01;;;;;;;23.67;13.68;;;21.10;60.20;;;;;;5085269;28;20048;-36
2022/06/01 11:47:33;;;;;;;23.15;13.88;;;21.10;60.10;;;;;;5067139;28;20017;-36
2022/06/01 11:50:17;;;;;;;24.00;13.88;;;21.10;60.10;;;;;;5082729;28;20040;-36
2022/06/01 11:52:56;;;;;;;23.77;13.55;;;21.10;60.20;;;;;;5085481;28;20048;-36
2022/06/01 11:55:43;;;;;;;22.83;13.60;;;21.10;60.10;;;;;;5049793;28;20021;-36
2022/06/01 11:58:18;;;;;;;20.23;13.05;;;21.10;60.10;;;;;;5066079;28;20040;-36
2022/06/01 12:00:57;;;;;;;21.58;12.70;;;21.10;60.10;;;;;;5082377;28;20025;-36
2022/06/01 12:03:26;;;;;;;23.15;13.13;;;21.10;60.10;;;;;;5066316;28;20037;-36
2022/06/01 12:06:11;;;;;;;23.40;13.50;;;21.00;60.00;;;;;;5084794;28;20082;-36
2022/06/01 12:08:56;;;;;;;19.67;12.32;;;21.00;60.10;;;;;;5067273;28;20029;-36
2022/06/01 12:11:43;;;;;;;20.50;12.23;;;21.00;59.90;;;;;;5061852;28;20021;-37
2022/06/01 12:14:29;;;;;;;18.02;11.20;;;21.00;59.90;;;;;;5080686;28;20035;-36
2022/06/01 12:17:23;;;;;;;19.05;12.20;;;21.00;59.90;;;;;;5086661;28;20058;-36
2022/06/01 12:19:50;;;;;;;19.02;12.07;;;21.00;59.80;;;;;;5064767;28;20063;-36
2022/06/01 12:28:48;;;;;;;18.95;11.85;;;21.00;59.60;;;;;;5067708;28;20043;-36
2022/06/01 12:31:24;;;;;;;15.65;11.05;;;21.00;59.60;;;;;;5059889;28;20029;-36
2022/06/01 12:34:05;;;;;;;18.27;11.57;;;21.00;59.70;;;;;;5075322;28;20040;-35
2022/06/01 12:36:37;;;;;;;19.00;10.75;;;21.00;59.80;;;;;;5084282;28;20097;-36
2022/06/01 12:39:34;;;;;;;18.52;10.88;;;21.00;59.70;;;;;;5083402;28;20029;-36
2022/06/01 12:42:21;;;;;;;19.02;11.38;;;21.00;59.60;;;;;;5084032;28;20051;-36
2022/06/01 12:44:51;;;;;;;17.20;10.80;;;21.00;59.60;;;;;;5040162;28;20039;-36
2022/06/01 12:47:36;;;;;;;18.65;11.38;;;21.00;59.70;;;;;;5068518;28;20705;-36
2022/06/01 12:50:11;;;;;;;17.27;10.57;;;21.00;59.80;;;;;;5048551;28;20051;-36
2022/06/01 12:52:37;;;;;;;18.70;10.90;;;21.00;59.80;;;;;;5064412;28;20021;-36
2022/06/01 12:55:23;;;;;;;15.15;10.02;;;21.00;59.80;;;;;;5081983;28;20088;-36
2022/06/01 12:57:55;;;;;;;19.88;10.93;;;21.00;59.90;;;;;;5084238;28;20059;-36
2022/06/01 13:00:24;;;;;;;15.60;10.63;;;21.00;59.90;;;;;;5057842;28;20086;-35
2022/06/01 13:02:50;;;;;;;15.98;10.13;;;21.00;59.80;;;;;;5080787;28;20051;-35
2022/06/01 13:05:27;;;;;;;15.30;10.20;;;21.00;59.90;;;;;;5065391;28;20031;-40
2022/06/01 13:07:57;;;;;;;16.08;9.82;;;21.00;59.90;;;;;;5056259;28;20036;-35
2022/06/01 13:10:28;;;;;;;17.33;10.02;;;21.00;59.90;;;;;;5062485;28;20044;-36
2022/06/01 13:13:12;;;;;;;16.30;10.10;;;21.10;60.00;;;;;;5064167;28;20795;-36
2022/06/01 13:15:39;;;;;;;15.93;9.75;;;21.10;60.00;;;;;;5063359;28;20047;-36
2022/06/01 13:18:07;;;;;;;16.67;10.53;;;21.10;60.10;;;;;;5080692;28;20036;-35
2022/06/01 13:20:34;;;;;;;14.63;9.38;;;21.10;60.20;;;;;;5075806;28;20053;-35
2022/06/01 13:23:01;;;;;;;17.25;10.45;;;21.00;60.20;;;;;;5062703;28;20048;-35
2022/06/01 13:25:32;;;;;;;15.57;9.87;;;21.10;60.40;;;;;;5082458;28;20017;-36
2022/06/01 13:27:58;;;;;;;13.80;9.50;;;21.10;60.50;;;;;;5064341;28;20038;-35
2022/06/01 13:30:25;;;;;;;14.40;10.00;;;21.10;60.60;;;;;;5079955;28;20032;-35
2022/06/01 13:32:52;;;;;;;14.20;9.20;;;21.10;60.80;;;;;;5049153;28;20048;-35
2022/06/01 13:35:24;;;;;;;14.98;8.75;;;21.10;60.90;;;;;;5085353;28;20025;-35
2022/06/01 13:37:52;;;;;;;13.75;9.00;;;21.10;61.10;;;;;;5083125;28;20039;-35